Time;durP1;ratioP1;P1;durP2;ratioP2;P2;SDS_P1;SDS_P2;PMS_P1;PMS_P2;Temp;Humidity;BMP_temperature;BMP_pressure;BME280_temperature;BME280_humidity;BME280_pressure;Samples;Min_cycle;Max_cycle;Signal;HPM_P1;HPM_P2
2022/04/02 00:01:42;;;;;;;8.18;5.90;;;;;;;;;;5031485;28;20358;-72
2022/04/02 00:04:08;;;;;;;10.13;6.07;;;;;;;;;;5043215;28;20038;-72
2022/04/02 00:06:35;;;;;;;8.48;6.07;;;;;;;;;;5042729;28;20423;-72
2022/04/02 00:09:01;;;;;;;9.40;6.50;;;;;;;;;;5034945;28;20044;-72
2022/04/02 00:11:27;;;;;;;9.20;6.43;;;;;;;;;;5041697;28;20029;-72
2022/04/02 00:13:53;;;;;;;8.13;5.82;;;;;;;;;;5027447;28;20045;-73
2022/04/02 00:16:19;;;;;;;6.70;3.47;;;;;;;;;;5032617;28;20029;-73
2022/04/02 00:18:45;;;;;;;7.55;5.55;;;;;;;;;;5046901;28;20033;-73
2022/04/02 00:21:11;;;;;;;9.07;6.57;;;;;;;;;;5042887;28;20036;-72
2022/04/02 00:23:39;;;;;;;7.55;4.90;;;;;;;;;;5030532;28;20595;-72
2022/04/02 00:26:09;;;;;;;7.60;4.97;;;;;;;;;;5035033;28;20120;-72
2022/04/02 00:28:36;;;;;;;6.97;4.57;;;;;;;;;;5047464;28;20044;-73
2022/04/02 00:31:02;;;;;;;7.65;5.30;;;;;;;;;;5040438;28;20079;-73
2022/04/02 00:33:28;;;;;;;5.97;3.53;;;;;;;;;;5039577;28;20037;-73
2022/04/02 00:35:55;;;;;;;6.68;4.32;;;;;;;;;;5040744;28;20110;-73
2022/04/02 00:38:21;;;;;;;8.02;4.93;;;;;;;;;;5035990;28;20112;-72
2022/04/02 00:40:47;;;;;;;7.00;4.80;;;;;;;;;;5041363;28;20571;-72
2022/04/02 00:43:30;;;;;;;8.60;4.78;;;;;;;;;;5039882;28;20131;-73
2022/04/02 00:45:58;;;;;;;6.22;4.45;;;;;;;;;;5037447;28;20099;-72
2022/04/02 00:48:24;;;;;;;6.20;4.18;;;;;;;;;;5037640;28;20075;-72
2022/04/02 00:50:58;;;;;;;7.97;4.93;;;;;;;;;;5045246;28;20076;-73
2022/04/02 00:53:32;;;;;;;7.85;5.53;;;;;;;;;;5041818;28;20033;-73
2022/04/02 00:55:59;;;;;;;8.57;5.25;;;;;;;;;;5048085;28;20029;-72
2022/04/02 00:58:25;;;;;;;8.57;5.35;;;;;;;;;;5033927;28;20091;-73
2022/04/02 01:00:52;;;;;;;7.70;5.88;;;;;;;;;;5034043;28;20122;-72
2022/04/02 01:03:18;;;;;;;8.43;5.50;;;;;;;;;;5035587;28;20415;-73
2022/04/02 01:05:45;;;;;;;7.07;5.55;;;;;;;;;;5042931;28;20036;-73
2022/04/02 01:08:11;;;;;;;6.35;5.13;;;;;;;;;;5039234;28;20175;-73
2022/04/02 01:10:42;;;;;;;7.13;4.97;;;;;;;;;;5045843;28;20775;-72
2022/04/02 01:13:08;;;;;;;7.05;5.22;;;;;;;;;;5034551;28;20044;-73
2022/04/02 01:15:35;;;;;;;8.75;5.32;;;;;;;;;;5034296;28;20040;-72
2022/04/02 01:18:01;;;;;;;7.22;5.63;;;;;;;;;;5042698;28;20045;-72
2022/04/02 01:20:30;;;;;;;7.38;4.85;;;;;;;;;;5046578;28;20032;-73
2022/04/02 01:22:57;;;;;;;7.65;4.90;;;;;;;;;;5036979;28;20033;-73
2022/04/02 01:25:23;;;;;;;8.52;5.90;;;;;;;;;;5036498;28;20055;-72
2022/04/02 01:27:49;;;;;;;12.50;6.28;;;;;;;;;;5038365;28;20041;-73
2022/04/02 01:30:15;;;;;;;8.57;5.72;;;;;;;;;;5044891;28;20511;-73
2022/04/02 01:32:42;;;;;;;9.95;6.72;;;;;;;;;;5047902;28;20043;-72
2022/04/02 01:35:09;;;;;;;11.15;8.05;;;;;;;;;;5042392;28;20383;-72
2022/04/02 01:37:36;;;;;;;9.15;6.78;;;;;;;;;;5034276;28;20033;-73
2022/04/02 01:40:06;;;;;;;7.90;5.70;;;;;;;;;;5045908;28;20036;-72
2022/04/02 01:42:32;;;;;;;8.80;5.95;;;;;;;;;;5034890;28;20038;-73
2022/04/02 01:44:58;;;;;;;9.52;7.13;;;;;;;;;;5049152;28;20037;-72
2022/04/02 01:47:24;;;;;;;9.45;6.72;;;;;;;;;;5041929;28;20554;-72
2022/04/02 01:49:51;;;;;;;10.30;7.70;;;;;;;;;;5043029;28;20039;-72
2022/04/02 01:52:18;;;;;;;8.27;6.25;;;;;;;;;;5030103;28;20025;-72
2022/04/02 01:54:44;;;;;;;8.82;6.40;;;;;;;;;;5034383;28;20147;-73
2022/04/02 01:57:11;;;;;;;8.77;6.38;;;;;;;;;;5049872;28;20112;-72
2022/04/02 01:59:39;;;;;;;8.93;6.45;;;;;;;;;;5045935;28;20026;-73
2022/04/02 02:02:05;;;;;;;11.57;7.63;;;;;;;;;;5038402;28;20029;-72
2022/04/02 02:04:32;;;;;;;10.98;8.40;;;;;;;;;;5045692;28;20033;-73
2022/04/02 02:06:58;;;;;;;9.68;7.47;;;;;;;;;;5043402;28;20076;-72
2022/04/02 02:09:24;;;;;;;7.03;5.13;;;;;;;;;;5037036;28;20556;-72
2022/04/02 02:11:49;;;;;;;9.75;6.93;;;;;;;;;;5037886;28;20029;-73
2022/04/02 02:14:15;;;;;;;8.85;6.75;;;;;;;;;;5032584;28;20038;-72
2022/04/02 02:16:41;;;;;;;11.00;8.25;;;;;;;;;;5045822;28;20100;-73
2022/04/02 02:19:08;;;;;;;9.95;7.00;;;;;;;;;;5041740;28;20037;-72
2022/04/02 02:21:34;;;;;;;10.65;8.07;;;;;;;;;;5046663;28;20110;-72
2022/04/02 02:24:00;;;;;;;9.90;6.97;;;;;;;;;;5045097;28;20042;-72
2022/04/02 02:26:26;;;;;;;8.07;6.43;;;;;;;;;;5043020;28;20486;-72
2022/04/02 02:28:52;;;;;;;8.73;6.53;;;;;;;;;;5033222;28;20033;-72
2022/04/02 02:31:18;;;;;;;9.77;6.47;;;;;;;;;;5034169;28;20033;-72
2022/04/02 02:36:29;;;;;;;9.13;6.88;;;;;;;;;;5038336;28;20079;-73
2022/04/02 02:38:56;;;;;;;8.52;6.47;;;;;;;;;;5036984;28;20740;-73
2022/04/02 02:41:22;;;;;;;8.23;6.10;;;;;;;;;;5035153;28;20033;-72
2022/04/02 02:43:48;;;;;;;9.40;7.25;;;;;;;;;;5028694;28;20080;-73
2022/04/02 02:46:17;;;;;;;10.02;7.03;;;;;;;;;;5036702;28;20083;-72
2022/04/02 02:48:43;;;;;;;9.15;7.50;;;;;;;;;;5041068;28;20037;-72
2022/04/02 02:51:09;;;;;;;11.30;8.25;;;;;;;;;;5037217;28;20029;-73
2022/04/02 02:53:35;;;;;;;11.27;8.18;;;;;;;;;;5043441;28;20036;-73
2022/04/02 02:56:01;;;;;;;10.90;8.18;;;;;;;;;;5038664;28;20071;-72
2022/04/02 02:58:28;;;;;;;10.15;7.90;;;;;;;;;;5031762;28;20045;-72
2022/04/02 03:00:54;;;;;;;10.77;8.35;;;;;;;;;;5030310;28;20079;-72
2022/04/02 03:03:22;;;;;;;11.02;8.55;;;;;;;;;;5043832;28;20530;-72
2022/04/02 03:05:48;;;;;;;12.20;9.25;;;;;;;;;;5043868;28;20061;-72
2022/04/02 03:08:14;;;;;;;12.38;9.50;;;;;;;;;;5038996;28;20040;-72
2022/04/02 03:10:40;;;;;;;12.63;9.63;;;;;;;;;;5039785;28;20056;-72
2022/04/02 03:13:06;;;;;;;13.68;11.30;;;;;;;;;;5042175;28;20024;-72
2022/04/02 03:15:32;;;;;;;13.32;10.05;;;;;;;;;;5042008;28;20388;-72
2022/04/02 03:18:03;;;;;;;8.48;5.60;;;;;;;;;;5038715;28;20419;-72
2022/04/02 03:20:29;;;;;;;9.63;6.30;;;;;;;;;;5048150;28;20440;-72
2022/04/02 03:22:55;;;;;;;8.68;5.85;;;;;;;;;;5043278;28;20033;-73
2022/04/02 03:25:21;;;;;;;8.35;6.45;;;;;;;;;;5039485;28;20033;-72
2022/04/02 03:27:48;;;;;;;8.80;5.90;;;;;;;;;;5037098;28;20832;-73
2022/04/02 03:30:15;;;;;;;9.75;6.53;;;;;;;;;;5036579;28;20506;-72
2022/04/02 03:32:42;;;;;;;7.18;5.30;;;;;;;;;;5031191;28;20796;-72
2022/04/02 03:35:08;;;;;;;8.40;5.60;;;;;;;;;;5035473;28;20037;-72
2022/04/02 03:37:36;;;;;;;8.30;5.43;;;;;;;;;;5035080;28;20033;-72
2022/04/02 03:40:04;;;;;;;8.32;5.35;;;;;;;;;;5044885;28;20047;-72
2022/04/02 03:42:30;;;;;;;9.15;5.53;;;;;;;;;;5039235;28;20053;-72
2022/04/02 03:44:56;;;;;;;9.32;5.57;;;;;;;;;;5038751;28;20526;-72
2022/04/02 03:47:22;;;;;;;9.80;6.00;;;;;;;;;;5032796;28;20045;-72
2022/04/02 03:49:49;;;;;;;6.70;4.90;;;;;;;;;;5036013;28;20029;-72
2022/04/02 03:52:15;;;;;;;10.75;5.18;;;;;;;;;;5038111;28;20021;-73
2022/04/02 03:54:41;;;;;;;7.90;4.88;;;;;;;;;;5036826;28;20498;-73
2022/04/02 03:57:08;;;;;;;8.32;5.25;;;;;;;;;;5032798;28;20037;-73
2022/04/02 03:59:35;;;;;;;8.60;6.00;;;;;;;;;;5039853;28;20042;-72
2022/04/02 04:02:01;;;;;;;8.95;5.65;;;;;;;;;;5046266;28;20116;-73
2022/04/02 04:04:27;;;;;;;7.85;4.78;;;;;;;;;;5046180;28;20183;-73
2022/04/02 04:06:54;;;;;;;8.55;5.13;;;;;;;;;;5047125;28;20030;-72
2022/04/02 04:09:20;;;;;;;7.43;4.80;;;;;;;;;;5041281;28;20049;-72
2022/04/02 04:11:47;;;;;;;8.32;5.20;;;;;;;;;;5044200;28;20648;-72
2022/04/02 04:14:14;;;;;;;10.45;5.57;;;;;;;;;;5046758;28;20112;-72
2022/04/02 04:16:41;;;;;;;7.22;4.85;;;;;;;;;;5041023;28;20030;-72
2022/04/02 04:19:07;;;;;;;8.77;6.05;;;;;;;;;;5043693;28;20069;-72
2022/04/02 04:21:34;;;;;;;9.25;5.85;;;;;;;;;;5039381;28;20025;-72
2022/04/02 04:24:00;;;;;;;7.30;5.47;;;;;;;;;;5043723;28;20069;-72
2022/04/02 04:26:26;;;;;;;8.68;5.53;;;;;;;;;;5047337;28;20036;-72
2022/04/02 04:28:52;;;;;;;8.05;4.97;;;;;;;;;;5041686;28;20047;-72
2022/04/02 04:31:18;;;;;;;7.82;5.15;;;;;;;;;;5034376;28;20538;-72
2022/04/02 04:33:44;;;;;;;7.65;5.63;;;;;;;;;;5031603;28;20037;-72
2022/04/02 04:36:11;;;;;;;8.02;5.38;;;;;;;;;;5040903;28;20085;-72
2022/04/02 04:38:37;;;;;;;9.32;5.90;;;;;;;;;;5043223;28;20079;-72
2022/04/02 04:41:03;;;;;;;8.82;5.68;;;;;;;;;;5049097;28;20029;-72
2022/04/02 04:43:30;;;;;;;7.10;4.38;;;;;;;;;;5048944;28;20052;-72
2022/04/02 04:45:56;;;;;;;7.50;5.40;;;;;;;;;;5051485;28;20036;-72
2022/04/02 04:48:22;;;;;;;10.15;6.88;;;;;;;;;;5047373;28;20037;-72
2022/04/02 04:50:48;;;;;;;7.60;5.63;;;;;;;;;;5046317;28;20112;-73
2022/04/02 04:53:14;;;;;;;7.90;5.50;;;;;;;;;;5038233;28;20029;-73
2022/04/02 04:55:40;;;;;;;8.38;6.10;;;;;;;;;;5047573;28;20033;-72
2022/04/02 04:58:07;;;;;;;9.25;6.25;;;;;;;;;;5049213;28;20065;-72
2022/04/02 05:00:33;;;;;;;8.10;5.63;;;;;;;;;;5046706;28;20525;-72
2022/04/02 05:02:59;;;;;;;12.20;6.07;;;;;;;;;;5047284;28;20718;-72
2022/04/02 05:05:28;;;;;;;9.20;6.35;;;;;;;;;;5046810;28;20021;-73
2022/04/02 05:07:55;;;;;;;8.93;6.10;;;;;;;;;;5048905;28;20044;-73
2022/04/02 05:10:21;;;;;;;8.52;6.03;;;;;;;;;;5048521;28;20040;-72
2022/04/02 05:12:47;;;;;;;10.48;7.05;;;;;;;;;;5048971;28;20052;-72
2022/04/02 05:15:13;;;;;;;8.38;5.88;;;;;;;;;;5050261;28;20079;-72
2022/04/02 05:17:39;;;;;;;7.88;5.38;;;;;;;;;;5048567;28;20040;-72
2022/04/02 05:20:07;;;;;;;8.57;6.05;;;;;;;;;;5042938;28;20059;-73
2022/04/02 05:22:33;;;;;;;8.00;5.25;;;;;;;;;;5048506;28;20059;-72
2022/04/02 05:24:59;;;;;;;7.97;5.30;;;;;;;;;;5038270;28;20029;-72
2022/04/02 05:27:25;;;;;;;7.47;5.38;;;;;;;;;;5031172;28;20029;-73
2022/04/02 05:29:52;;;;;;;6.57;4.30;;;;;;;;;;5046209;28;20078;-72
2022/04/02 05:32:18;;;;;;;7.47;4.75;;;;;;;;;;5046668;28;20064;-70
2022/04/02 05:34:44;;;;;;;7.95;5.38;;;;;;;;;;5036238;28;20037;-73
2022/04/02 05:37:10;;;;;;;8.50;6.03;;;;;;;;;;5036496;28;20031;-70
2022/04/02 05:39:36;;;;;;;10.30;6.25;;;;;;;;;;5044413;28;20061;-70
2022/04/02 05:42:02;;;;;;;8.80;5.35;;;;;;;;;;5046517;28;20033;-73
2022/04/02 05:44:30;;;;;;;8.82;5.93;;;;;;;;;;5041838;28;20048;-72
2022/04/02 05:46:56;;;;;;;7.18;4.93;;;;;;;;;;5038744;28;20087;-73
2022/04/02 05:49:22;;;;;;;8.07;4.93;;;;;;;;;;5045264;28;20116;-73
2022/04/02 05:51:48;;;;;;;7.43;5.10;;;;;;;;;;5042660;28;20159;-73
2022/04/02 05:54:14;;;;;;;8.05;4.93;;;;;;;;;;5040199;28;20041;-73
2022/04/02 05:56:42;;;;;;;7.15;4.65;;;;;;;;;;5047588;28;20040;-73
2022/04/02 05:59:08;;;;;;;8.15;5.00;;;;;;;;;;5036267;28;20076;-73
2022/04/02 06:01:37;;;;;;;8.73;4.95;;;;;;;;;;5035145;28;20037;-73
2022/04/02 06:04:03;;;;;;;8.48;6.32;;;;;;;;;;5045789;28;20368;-73
2022/04/02 06:06:33;;;;;;;8.25;5.10;;;;;;;;;;5048139;28;20033;-70
2022/04/02 06:08:59;;;;;;;12.38;6.03;;;;;;;;;;5042153;28;20037;-73
2022/04/02 06:11:25;;;;;;;10.93;6.47;;;;;;;;;;5048246;28;20025;-72
2022/04/02 06:13:51;;;;;;;9.68;6.05;;;;;;;;;;5049425;28;20120;-72
2022/04/02 06:16:17;;;;;;;6.68;3.88;;;;;;;;;;5039578;28;20036;-72
2022/04/02 06:18:44;;;;;;;7.25;4.63;;;;;;;;;;5038970;28;20140;-73
2022/04/02 06:21:11;;;;;;;7.93;5.32;;;;;;;;;;5044279;28;20104;-72
2022/04/02 06:23:37;;;;;;;9.48;6.28;;;;;;;;;;5040024;28;20048;-72
2022/04/02 06:26:03;;;;;;;8.00;4.85;;;;;;;;;;5042930;28;20029;-72
2022/04/02 06:28:30;;;;;;;10.65;6.25;;;;;;;;;;5038001;28;20476;-73
2022/04/02 06:30:56;;;;;;;9.82;6.32;;;;;;;;;;5041415;28;20024;-73
2022/04/02 06:33:22;;;;;;;7.35;5.07;;;;;;;;;;5037038;28;20076;-72
2022/04/02 06:35:48;;;;;;;8.52;5.50;;;;;;;;;;5039854;28;20036;-71
2022/04/02 06:38:14;;;;;;;8.63;6.40;;;;;;;;;;5042722;28;20080;-72
2022/04/02 06:40:40;;;;;;;9.02;6.25;;;;;;;;;;5038058;28;20037;-72
2022/04/02 06:43:06;;;;;;;7.97;5.25;;;;;;;;;;5038602;28;20045;-71
2022/04/02 06:45:32;;;;;;;7.80;3.97;;;;;;;;;;5042362;28;20045;-73
2022/04/02 06:47:58;;;;;;;7.20;4.28;;;;;;;;;;5039576;28;20697;-72
2022/04/02 06:50:25;;;;;;;6.05;3.67;;;;;;;;;;5035903;28;20032;-71
2022/04/02 06:52:50;;;;;;;7.35;5.30;;;;;;;;;;5049241;28;20065;-72
2022/04/02 06:55:16;;;;;;;7.45;4.93;;;;;;;;;;5038934;28;20116;-72
2022/04/02 06:57:43;;;;;;;5.93;3.70;;;;;;;;;;5038621;28;20033;-73
2022/04/02 07:00:09;;;;;;;7.68;4.80;;;;;;;;;;5035218;28;20483;-73
2022/04/02 07:02:35;;;;;;;6.38;4.70;;;;;;;;;;5041263;28;20503;-73
2022/04/02 07:05:01;;;;;;;7.53;5.43;;;;;;;;;;5040299;28;20033;-73
2022/04/02 07:07:27;;;;;;;8.63;5.78;;;;;;;;;;5040896;28;20032;-72
2022/04/02 07:09:53;;;;;;;7.15;4.25;;;;;;;;;;5041713;28;20029;-72
2022/04/02 07:12:19;;;;;;;5.95;3.55;;;;;;;;;;5043483;28;20036;-73
2022/04/02 07:14:45;;;;;;;11.93;3.55;;;;;;;;;;5037726;28;20035;-73
2022/04/02 07:17:13;;;;;;;6.28;3.78;;;;;;;;;;5038999;28;20021;-73
2022/04/02 07:19:39;;;;;;;6.07;3.70;;;;;;;;;;5036767;28;20033;-73
2022/04/02 07:22:09;;;;;;;6.88;4.28;;;;;;;;;;5037153;28;20025;-72
2022/04/02 07:24:35;;;;;;;6.75;3.70;;;;;;;;;;5039517;28;20040;-72
2022/04/02 07:27:02;;;;;;;5.95;3.50;;;;;;;;;;5037648;28;20037;-72
2022/04/02 07:29:28;;;;;;;6.78;3.90;;;;;;;;;;5043326;28;20086;-73
2022/04/02 07:31:54;;;;;;;6.25;4.18;;;;;;;;;;5031906;28;20071;-72
2022/04/02 07:34:20;;;;;;;6.60;4.05;;;;;;;;;;5039483;28;20373;-73
2022/04/02 07:37:25;;;;;;;8.32;6.63;;;;;;;;;;5041999;28;20029;-73
2022/04/02 07:40:07;;;;;;;6.70;4.32;;;;;;;;;;4993768;28;20057;-73
2022/04/02 07:42:38;;;;;;;6.75;3.65;;;;;;;;;;4992830;28;20118;-72
2022/04/02 07:45:05;;;;;;;6.00;3.63;;;;;;;;;;5020536;28;20050;-72
2022/04/02 07:47:32;;;;;;;5.63;3.38;;;;;;;;;;5036636;28;20051;-72
2022/04/02 07:50:04;;;;;;;6.82;3.78;;;;;;;;;;5041588;28;20037;-72
2022/04/02 07:52:30;;;;;;;7.20;3.97;;;;;;;;;;5035331;28;20025;-72
2022/04/02 07:54:57;;;;;;;6.00;3.42;;;;;;;;;;5033813;28;20083;-72
2022/04/02 07:57:28;;;;;;;8.18;3.92;;;;;;;;;;5030821;28;20120;-73
2022/04/02 08:00:03;;;;;;;5.05;2.65;;;;;;;;;;5036268;28;20029;-72
2022/04/02 08:02:37;;;;;;;5.60;3.00;;;;;;;;;;5029634;28;20092;-72
2022/04/02 08:05:04;;;;;;;6.03;2.65;;;;;;;;;;5034330;28;20037;-73
2022/04/02 08:07:30;;;;;;;4.78;2.75;;;;;;;;;;5037135;28;20037;-72
2022/04/02 08:09:57;;;;;;;5.38;3.00;;;;;;;;;;5032747;28;20033;-72
2022/04/02 08:12:24;;;;;;;8.48;3.03;;;;;;;;;;5031017;28;20404;-72
2022/04/02 08:14:50;;;;;;;5.03;2.28;;;;;;;;;;5042430;28;20034;-73
2022/04/02 08:17:17;;;;;;;6.07;2.85;;;;;;;;;;5040140;28;20035;-72
2022/04/02 08:19:44;;;;;;;5.80;3.22;;;;;;;;;;5042304;28;20025;-72
2022/04/02 08:22:10;;;;;;;5.55;2.60;;;;;;;;;;5043908;28;20041;-73
2022/04/02 08:24:36;;;;;;;4.63;2.75;;;;;;;;;;5042130;28;20063;-73
2022/04/02 08:27:02;;;;;;;3.88;1.92;;;;;;;;;;5041205;28;20029;-72
2022/04/02 08:29:28;;;;;;;3.25;1.90;;;;;;;;;;5040579;28;20746;-72
2022/04/02 08:31:56;;;;;;;5.28;2.53;;;;;;;;;;5037053;28;20570;-72
2022/04/02 08:34:25;;;;;;;4.35;1.63;;;;;;;;;;5041235;28;20483;-73
2022/04/02 08:37:11;;;;;;;5.05;2.42;;;;;;;;;;5038455;28;20141;-72
2022/04/02 08:39:43;;;;;;;4.75;2.30;;;;;;;;;;5052883;28;20122;-72
2022/04/02 08:42:28;;;;;;;5.72;2.63;;;;;;;;;;5039373;28;20105;-72
2022/04/02 08:45:07;;;;;;;3.45;1.98;;;;;;;;;;5045299;28;20132;-73
2022/04/02 08:47:52;;;;;;;4.28;1.80;;;;;;;;;;5047188;28;20110;-72
2022/04/02 08:50:18;;;;;;;2.20;0.85;;;;;;;;;;5045627;28;20032;-72
2022/04/02 08:52:51;;;;;;;3.15;1.42;;;;;;;;;;5045640;28;20561;-72
2022/04/02 08:55:18;;;;;;;4.40;2.28;;;;;;;;;;5041076;28;20500;-73
2022/04/02 08:58:10;;;;;;;3.83;1.35;;;;;;;;;;5044971;28;20029;-72
2022/04/02 09:00:36;;;;;;;;;;;;;;;;;;5044792;28;20049;-72
2022/04/02 09:03:14;;;;;;;2.97;1.20;;;;;;;;;;5045212;28;19920;-72
2022/04/02 09:05:40;;;;;;;3.10;1.40;;;;;;;;;;5042860;28;20052;-72
2022/04/02 09:08:09;;;;;;;2.85;1.30;;;;;;;;;;5038912;28;20025;-72
2022/04/02 09:10:59;;;;;;;3.45;1.42;;;;;;;;;;5040751;28;20045;-73
2022/04/02 09:13:37;;;;;;;2.40;1.13;;;;;;;;;;5044186;28;20029;-72
2022/04/02 09:16:07;;;;;;;2.03;0.88;;;;;;;;;;5045694;28;20543;-72
2022/04/02 09:18:52;;;;;;;2.70;1.10;;;;;;;;;;5035398;28;20033;-72
2022/04/02 09:21:38;;;;;;;1.42;0.70;;;;;;;;;;5045949;28;20036;-72
2022/04/02 09:24:36;;;;;;;1.92;1.00;;;;;;;;;;5041698;28;20586;-72
2022/04/02 09:27:21;;;;;;;2.35;0.82;;;;;;;;;;5044480;28;20037;-73
2022/04/02 09:30:05;;;;;;;1.20;0.70;;;;;;;;;;5041373;28;20078;-72
2022/04/02 09:32:40;;;;;;;1.45;0.80;;;;;;;;;;5040161;28;20635;-72
2022/04/02 09:35:22;;;;;;;1.23;0.60;;;;;;;;;;5044137;28;20079;-73
2022/04/02 09:37:54;;;;;;;1.50;0.75;;;;;;;;;;5044692;28;20040;-72
2022/04/02 09:40:25;;;;;;;1.58;0.85;;;;;;;;;;5043708;28;20809;-72
2022/04/02 09:42:51;;;;;;;3.40;0.77;;;;;;;;;;5044186;28;20094;-72
2022/04/02 09:45:21;;;;;;;2.45;0.60;;;;;;;;;;5044942;28;20039;-72
2022/04/02 09:47:50;;;;;;;1.27;0.70;;;;;;;;;;5038567;28;20036;-72
2022/04/02 09:50:17;;;;;;;3.28;0.60;;;;;;;;;;5045739;28;20033;-73
2022/04/02 09:52:43;;;;;;;1.80;0.60;;;;;;;;;;5043023;28;20061;-72
2022/04/02 09:55:12;;;;;;;2.08;0.80;;;;;;;;;;5044435;28;20068;-72
2022/04/02 09:57:51;;;;;;;3.83;1.00;;;;;;;;;;5042270;28;20052;-72
2022/04/02 10:00:19;;;;;;;1.42;0.63;;;;;;;;;;5039120;28;20048;-72
2022/04/02 10:03:04;;;;;;;2.10;0.90;;;;;;;;;;5042638;28;20064;-72
2022/04/02 10:05:40;;;;;;;1.98;0.88;;;;;;;;;;5039306;28;20405;-72
2022/04/02 10:08:27;;;;;;;1.15;0.65;;;;;;;;;;5043257;28;20123;-73
2022/04/02 10:10:56;;;;;;;1.65;0.80;;;;;;;;;;5035727;28;20048;-72
2022/04/02 10:13:23;;;;;;;1.25;0.60;;;;;;;;;;5033925;28;20025;-71
2022/04/02 10:15:50;;;;;;;1.48;0.73;;;;;;;;;;5043199;28;20056;-73
2022/04/02 10:18:20;;;;;;;2.97;1.02;;;;;;;;;;5038879;28;20033;-72
2022/04/02 10:20:48;;;;;;;2.10;1.00;;;;;;;;;;5039522;28;20025;-72
2022/04/02 10:23:22;;;;;;;1.13;0.70;;;;;;;;;;5041448;28;20033;-72
2022/04/02 10:26:03;;;;;;;1.58;0.70;;;;;;;;;;5037526;28;20033;-72
2022/04/02 10:28:32;;;;;;;1.65;0.77;;;;;;;;;;5037413;28;20035;-72
2022/04/02 10:31:00;;;;;;;1.83;0.68;;;;;;;;;;5035553;28;20178;-72
2022/04/02 10:33:28;;;;;;;2.30;0.80;;;;;;;;;;5036410;28;20029;-73
2022/04/02 10:35:55;;;;;;;2.35;1.10;;;;;;;;;;5038369;28;20114;-72
2022/04/02 10:38:34;;;;;;;2.10;0.80;;;;;;;;;;5035547;28;20037;-72
2022/04/02 10:41:04;;;;;;;1.80;0.70;;;;;;;;;;5044728;28;20032;-72
2022/04/02 10:43:31;;;;;;;1.73;0.80;;;;;;;;;;5039606;28;20053;-73
2022/04/02 10:45:58;;;;;;;1.85;0.68;;;;;;;;;;5036654;28;20802;-73
2022/04/02 10:48:30;;;;;;;3.70;0.80;;;;;;;;;;5035803;28;20033;-72
2022/04/02 10:50:57;;;;;;;1.30;0.70;;;;;;;;;;5041577;28;20044;-72
2022/04/02 10:53:23;;;;;;;2.22;0.93;;;;;;;;;;5035152;28;20033;-72
2022/04/02 10:55:58;;;;;;;6.43;1.17;;;;;;;;;;5031869;28;20029;-72
2022/04/02 10:58:24;;;;;;;1.95;0.70;;;;;;;;;;5037864;28;20028;-73
2022/04/02 11:00:53;;;;;;;2.33;0.60;;;;;;;;;;5032948;28;20064;-73
2022/04/02 11:03:39;;;;;;;2.22;0.80;;;;;;;;;;5037583;28;20355;-73
2022/04/02 11:06:06;;;;;;;1.60;0.60;;;;;;;;;;5039074;28;20056;-73
2022/04/02 11:08:33;;;;;;;2.25;0.90;;;;;;;;;;5038899;28;20041;-72
2022/04/02 11:11:19;;;;;;;2.78;0.80;;;;;;;;;;5042056;28;20469;-73
2022/04/02 11:13:45;;;;;;;1.65;0.73;;;;;;;;;;5028868;28;20045;-72
2022/04/02 11:16:15;;;;;;;1.80;0.80;;;;;;;;;;5037463;28;20041;-72
2022/04/02 11:19:53;;;;;;;1.90;0.70;;;;;;;;;;5032426;28;20045;-72
2022/04/02 11:21:28;;;;;;;2.72;0.70;;;;;;;;;;5042200;28;20087;-73
2022/04/02 11:24:02;;;;;;;1.60;0.68;;;;;;;;;;5034295;28;20133;-72
2022/04/02 11:26:29;;;;;;;2.30;0.90;;;;;;;;;;5042278;28;20078;-72
2022/04/02 11:28:56;;;;;;;1.35;0.65;;;;;;;;;;5037509;28;20037;-72
2022/04/02 11:31:27;;;;;;;4.18;1.02;;;;;;;;;;5042404;28;20021;-72
2022/04/02 11:33:54;;;;;;;2.85;1.10;;;;;;;;;;5040972;28;20410;-72
2022/04/02 11:36:24;;;;;;;3.42;0.80;;;;;;;;;;5034772;28;20044;-72
2022/04/02 11:38:56;;;;;;;1.65;0.80;;;;;;;;;;5036942;28;20057;-72
2022/04/02 11:41:27;;;;;;;1.60;0.70;;;;;;;;;;5039934;28;20037;-72
2022/04/02 11:44:03;;;;;;;1.67;0.80;;;;;;;;;;5038990;28;20585;-72
2022/04/02 11:46:29;;;;;;;1.95;0.90;;;;;;;;;;5040362;28;20106;-73
2022/04/02 11:48:57;;;;;;;6.10;2.10;;;;;;;;;;5042251;28;20052;-73
2022/04/02 11:51:25;;;;;;;3.05;1.02;;;;;;;;;;5041033;28;20033;-72
2022/04/02 11:53:52;;;;;;;2.83;1.10;;;;;;;;;;5043170;28;20353;-72
2022/04/02 11:56:26;;;;;;;5.22;2.42;;;;;;;;;;5039919;28;20048;-73
2022/04/02 11:58:53;;;;;;;3.35;1.15;;;;;;;;;;5039464;28;20810;-72
2022/04/02 12:01:23;;;;;;;2.20;0.80;;;;;;;;;;5043910;28;20036;-72
2022/04/02 12:04:05;;;;;;;2.72;0.80;;;;;;;;;;5039913;28;20035;-72
2022/04/02 12:06:33;;;;;;;2.33;0.90;;;;;;;;;;5041324;28;20120;-73
2022/04/02 12:09:08;;;;;;;1.45;0.70;;;;;;;;;;5039325;28;20033;-72
2022/04/02 12:11:35;;;;;;;1.63;0.90;;;;;;;;;;5040866;28;20048;-73
2022/04/02 12:14:05;;;;;;;2.33;0.98;;;;;;;;;;5039816;28;20037;-72
2022/04/02 12:16:31;;;;;;;2.85;1.02;;;;;;;;;;5039940;28;20063;-72
2022/04/02 12:18:57;;;;;;;4.43;1.98;;;;;;;;;;5036508;28;20781;-73
2022/04/02 12:21:33;;;;;;;2.85;1.15;;;;;;;;;;5035116;28;20123;-72
2022/04/02 12:24:03;;;;;;;3.03;0.90;;;;;;;;;;5039907;28;20163;-72
2022/04/02 12:26:29;;;;;;;2.25;1.00;;;;;;;;;;5049025;28;20439;-72
2022/04/02 12:28:58;;;;;;;3.45;0.90;;;;;;;;;;5050323;28;20031;-73
2022/04/02 12:31:26;;;;;;;2.45;1.10;;;;;;;;;;5039417;28;20037;-72
2022/04/02 12:33:53;;;;;;;1.88;0.90;;;;;;;;;;5041980;28;20017;-72
2022/04/02 12:36:28;;;;;;;2.08;0.75;;;;;;;;;;5042962;28;20033;-72
2022/04/02 12:38:59;;;;;;;1.40;0.70;;;;;;;;;;5041109;28;20107;-72
2022/04/02 12:41:28;;;;;;;2.03;0.90;;;;;;;;;;5039062;28;20038;-72
2022/04/02 12:43:58;;;;;;;2.40;1.00;;;;;;;;;;5034955;28;20117;-72
2022/04/02 12:46:25;;;;;;;3.42;1.20;;;;;;;;;;5042434;28;20041;-72
2022/04/02 12:48:52;;;;;;;7.45;1.70;;;;;;;;;;5035326;28;20420;-73
2022/04/02 12:51:18;;;;;;;2.45;1.20;;;;;;;;;;5045920;28;20126;-72
2022/04/02 12:53:45;;;;;;;2.85;1.13;;;;;;;;;;5045253;28;20071;-72
2022/04/02 12:56:24;;;;;;;2.90;1.15;;;;;;;;;;5042787;28;20067;-72
2022/04/02 12:58:50;;;;;;;1.83;0.80;;;;;;;;;;5045705;28;20466;-72
2022/04/02 13:01:18;;;;;;;2.67;1.25;;;;;;;;;;5044887;28;20059;-72
2022/04/02 13:03:50;;;;;;;3.60;1.25;;;;;;;;;;5041720;28;20025;-73
2022/04/02 13:06:18;;;;;;;3.28;1.50;;;;;;;;;;5041149;28;20041;-72
2022/04/02 13:08:56;;;;;;;2.35;0.90;;;;;;;;;;5038107;28;20072;-72
2022/04/02 13:11:31;;;;;;;4.60;2.00;;;;;;;;;;5045968;28;20499;-72
2022/04/02 13:14:03;;;;;;;2.17;1.17;;;;;;;;;;5040076;28;20496;-72
2022/04/02 13:16:38;;;;;;;1.55;0.90;;;;;;;;;;5040389;28;20107;-72
2022/04/02 13:21:50;;;;;;;4.22;1.10;;;;;;;;;;5037913;28;20151;-72
2022/04/02 13:24:22;;;;;;;4.13;2.40;;;;;;;;;;5039210;28;20088;-72
2022/04/02 13:26:59;;;;;;;3.75;1.58;;;;;;;;;;5041780;28;20115;-72
2022/04/02 13:29:37;;;;;;;3.13;1.70;;;;;;;;;;5039863;28;20078;-72
2022/04/02 13:32:31;;;;;;;2.40;1.20;;;;;;;;;;5037155;28;20104;-72
2022/04/02 13:35:00;;;;;;;3.88;1.80;;;;;;;;;;5035638;28;20029;-72
2022/04/02 13:37:41;;;;;;;2.72;1.60;;;;;;;;;;5036164;28;20029;-72
2022/04/02 13:40:11;;;;;;;3.10;1.50;;;;;;;;;;5041606;28;20384;-72
2022/04/02 13:42:49;;;;;;;2.55;1.33;;;;;;;;;;5042607;28;20029;-72
2022/04/02 13:45:16;;;;;;;3.10;1.42;;;;;;;;;;5034645;28;20087;-72
2022/04/02 13:47:43;;;;;;;3.65;1.55;;;;;;;;;;5035114;28;20033;-72
2022/04/02 13:50:12;;;;;;;3.25;1.90;;;;;;;;;;5030647;28;20043;-72
2022/04/02 13:52:45;;;;;;;3.63;1.80;;;;;;;;;;5037776;28;20029;-72
2022/04/02 13:55:11;;;;;;;4.72;1.77;;;;;;;;;;5040681;28;20037;-72
2022/04/02 13:57:38;;;;;;;3.65;2.28;;;;;;;;;;5040853;28;20039;-72
2022/04/02 14:00:09;;;;;;;4.10;2.08;;;;;;;;;;5040751;28;20529;-72
2022/04/02 14:02:37;;;;;;;3.53;1.80;;;;;;;;;;5042135;28;20048;-72
2022/04/02 14:05:04;;;;;;;3.45;1.80;;;;;;;;;;5039790;28;20106;-72
2022/04/02 14:07:32;;;;;;;3.38;1.95;;;;;;;;;;5048363;28;20037;-72
2022/04/02 14:10:11;;;;;;;3.30;1.88;;;;;;;;;;5043117;28;20380;-72
2022/04/02 14:12:42;;;;;;;2.53;1.30;;;;;;;;;;5038311;28;20116;-72
2022/04/02 14:15:08;;;;;;;2.45;1.40;;;;;;;;;;5039796;28;20036;-72
2022/04/02 14:17:38;;;;;;;2.83;1.73;;;;;;;;;;5045044;28;20033;-72
2022/04/02 14:20:06;;;;;;;3.65;1.80;;;;;;;;;;5044525;28;20060;-73
2022/04/02 14:22:36;;;;;;;2.67;1.50;;;;;;;;;;5040024;28;20115;-73
2022/04/02 14:25:09;;;;;;;5.70;2.47;;;;;;;;;;5043035;28;20131;-73
2022/04/02 14:27:46;;;;;;;3.83;1.88;;;;;;;;;;5042008;28;20075;-73
2022/04/02 14:30:30;;;;;;;4.45;2.40;;;;;;;;;;5040403;28;20048;-72
2022/04/02 14:32:59;;;;;;;3.15;1.70;;;;;;;;;;5046038;28;20040;-73
2022/04/02 14:35:44;;;;;;;4.53;1.95;;;;;;;;;;5038626;28;20079;-73
2022/04/02 14:38:31;;;;;;;4.45;1.73;;;;;;;;;;5043074;28;20078;-72
2022/04/02 14:41:09;;;;;;;4.32;1.63;;;;;;;;;;5041485;28;20357;-72
2022/04/02 14:43:38;;;;;;;3.22;1.50;;;;;;;;;;5042882;28;20040;-73
2022/04/02 14:46:19;;;;;;;4.03;1.30;;;;;;;;;;5047094;28;20036;-72
2022/04/02 14:48:58;;;;;;;2.97;1.58;;;;;;;;;;5044118;28;20124;-72
2022/04/02 14:51:24;;;;;;;4.35;1.75;;;;;;;;;;5041009;28;20701;-72
2022/04/02 14:54:09;;;;;;;4.95;2.10;;;;;;;;;;5044017;28;20041;-72
2022/04/02 14:56:54;;;;;;;3.80;1.48;;;;;;;;;;5044996;28;20036;-72
2022/04/02 14:59:28;;;;;;;3.25;1.70;;;;;;;;;;5038535;28;20029;-71
2022/04/02 15:02:04;;;;;;;2.85;1.63;;;;;;;;;;5040135;28;20121;-73